sensor_id;sensor_type;location;lat;lon;timestamp;P1;durP1;ratioP1;P2;durP2;ratioP2
27839;SDS011;15207;42.182;24.308;2024-02-23T00:00:30;42.57;;;25.77;;
27839;SDS011;15207;42.182;24.308;2024-02-23T00:02:55;43.27;;;25.83;;
27839;SDS011;15207;42.182;24.308;2024-02-23T00:05:22;40.55;;;24.80;;
27839;SDS011;15207;42.182;24.308;2024-02-23T00:07:48;42.30;;;25.35;;
27839;SDS011;15207;42.182;24.308;2024-02-23T00:10:14;44.20;;;24.80;;
27839;SDS011;15207;42.182;24.308;2024-02-23T00:12:39;43.63;;;26.23;;
27839;SDS011;15207;42.182;24.308;2024-02-23T00:17:30;38.05;;;23.90;;
27839;SDS011;15207;42.182;24.308;2024-02-23T00:19:56;34.60;;;21.70;;
27839;SDS011;15207;42.182;24.308;2024-02-23T00:22:21;35.50;;;21.60;;
27839;SDS011;15207;42.182;24.308;2024-02-23T00:24:46;34.05;;;21.65;;
27839;SDS011;15207;42.182;24.308;2024-02-23T00:27:12;37.50;;;22.35;;
27839;SDS011;15207;42.182;24.308;2024-02-23T00:29:37;41.50;;;24.90;;
27839;SDS011;15207;42.182;24.308;2024-02-23T00:32:03;43.80;;;24.25;;
27839;SDS011;15207;42.182;24.308;2024-02-23T00:34:29;39.20;;;23.60;;
27839;SDS011;15207;42.182;24.308;2024-02-23T00:36:56;44.00;;;24.90;;
27839;SDS011;15207;42.182;24.308;2024-02-23T00:41:48;40.30;;;25.80;;
27839;SDS011;15207;42.182;24.308;2024-02-23T00:44:13;42.45;;;26.20;;
27839;SDS011;15207;42.182;24.308;2024-02-23T00:46:39;41.50;;;25.00;;
27839;SDS011;15207;42.182;24.308;2024-02-23T00:49:05;43.75;;;25.10;;
27839;SDS011;15207;42.182;24.308;2024-02-23T00:51:30;39.20;;;24.15;;
27839;SDS011;15207;42.182;24.308;2024-02-23T00:53:56;44.80;;;26.50;;
27839;SDS011;15207;42.182;24.308;2024-02-23T00:56:22;41.90;;;25.70;;
27839;SDS011;15207;42.182;24.308;2024-02-23T01:03:38;41.40;;;24.00;;
27839;SDS011;15207;42.182;24.308;2024-02-23T01:06:03;41.17;;;25.03;;
27839;SDS011;15207;42.182;24.308;2024-02-23T01:13:20;38.40;;;23.70;;
27839;SDS011;15207;42.182;24.308;2024-02-23T01:18:10;40.95;;;24.55;;
27839;SDS011;15207;42.182;24.308;2024-02-23T01:20:36;49.25;;;26.70;;
27839;SDS011;15207;42.182;24.308;2024-02-23T01:23:01;43.60;;;25.20;;
27839;SDS011;15207;42.182;24.308;2024-02-23T01:25:27;41.45;;;23.95;;
27839;SDS011;15207;42.182;24.308;2024-02-23T01:27:52;45.55;;;25.85;;
27839;SDS011;15207;42.182;24.308;2024-02-23T01:30:17;41.10;;;23.90;;
27839;SDS011;15207;42.182;24.308;2024-02-23T01:32:44;42.20;;;23.45;;
27839;SDS011;15207;42.182;24.308;2024-02-23T01:35:12;42.10;;;25.70;;
27839;SDS011;15207;42.182;24.308;2024-02-23T01:37:37;43.60;;;26.20;;
27839;SDS011;15207;42.182;24.308;2024-02-23T01:40:03;43.60;;;26.40;;
27839;SDS011;15207;42.182;24.308;2024-02-23T01:42:28;54.00;;;29.80;;
27839;SDS011;15207;42.182;24.308;2024-02-23T01:44:54;59.70;;;30.80;;
27839;SDS011;15207;42.182;24.308;2024-02-23T01:47:25;57.60;;;31.65;;
27839;SDS011;15207;42.182;24.308;2024-02-23T01:49:53;52.40;;;29.90;;
27839;SDS011;15207;42.182;24.308;2024-02-23T01:52:20;57.60;;;30.30;;
27839;SDS011;15207;42.182;24.308;2024-02-23T01:54:46;50.47;;;28.33;;
27839;SDS011;15207;42.182;24.308;2024-02-23T01:57:12;54.85;;;26.98;;
27839;SDS011;15207;42.182;24.308;2024-02-23T01:59:38;56.30;;;29.20;;
27839;SDS011;15207;42.182;24.308;2024-02-23T02:02:04;49.47;;;27.80;;
27839;SDS011;15207;42.182;24.308;2024-02-23T02:04:30;63.80;;;30.20;;
27839;SDS011;15207;42.182;24.308;2024-02-23T02:06:57;55.75;;;29.90;;
27839;SDS011;15207;42.182;24.308;2024-02-23T02:09:24;70.85;;;34.35;;
27839;SDS011;15207;42.182;24.308;2024-02-23T02:11:50;74.90;;;35.30;;
27839;SDS011;15207;42.182;24.308;2024-02-23T02:14:16;54.20;;;29.10;;
27839;SDS011;15207;42.182;24.308;2024-02-23T02:16:42;57.50;;;30.10;;
27839;SDS011;15207;42.182;24.308;2024-02-23T02:19:11;70.50;;;33.30;;
27839;SDS011;15207;42.182;24.308;2024-02-23T02:21:37;66.25;;;34.80;;
27839;SDS011;15207;42.182;24.308;2024-02-23T02:24:04;70.30;;;34.30;;
27839;SDS011;15207;42.182;24.308;2024-02-23T02:26:29;60.70;;;30.80;;
27839;SDS011;15207;42.182;24.308;2024-02-23T02:28:55;54.50;;;29.85;;
27839;SDS011;15207;42.182;24.308;2024-02-23T02:31:21;65.80;;;33.60;;
27839;SDS011;15207;42.182;24.308;2024-02-23T02:33:46;65.00;;;33.95;;
27839;SDS011;15207;42.182;24.308;2024-02-23T02:36:12;64.75;;;32.80;;
27839;SDS011;15207;42.182;24.308;2024-02-23T02:38:37;55.95;;;30.90;;
27839;SDS011;15207;42.182;24.308;2024-02-23T02:41:03;51.15;;;28.10;;
27839;SDS011;15207;42.182;24.308;2024-02-23T02:43:30;54.65;;;30.60;;
27839;SDS011;15207;42.182;24.308;2024-02-23T02:45:55;58.80;;;29.55;;
27839;SDS011;15207;42.182;24.308;2024-02-23T02:48:22;52.85;;;28.85;;
27839;SDS011;15207;42.182;24.308;2024-02-23T02:50:47;56.60;;;30.20;;
27839;SDS011;15207;42.182;24.308;2024-02-23T02:53:14;53.20;;;31.25;;
27839;SDS011;15207;42.182;24.308;2024-02-23T02:55:41;49.30;;;28.80;;
27839;SDS011;15207;42.182;24.308;2024-02-23T02:58:07;47.80;;;28.25;;
27839;SDS011;15207;42.182;24.308;2024-02-23T03:00:33;54.05;;;29.10;;
27839;SDS011;15207;42.182;24.308;2024-02-23T03:02:58;53.15;;;29.70;;
27839;SDS011;15207;42.182;24.308;2024-02-23T03:05:24;55.55;;;30.35;;
27839;SDS011;15207;42.182;24.308;2024-02-23T03:07:49;54.10;;;29.10;;
27839;SDS011;15207;42.182;24.308;2024-02-23T03:15:06;49.00;;;27.60;;
27839;SDS011;15207;42.182;24.308;2024-02-23T03:17:32;47.30;;;28.30;;
27839;SDS011;15207;42.182;24.308;2024-02-23T03:19:58;52.30;;;27.80;;
27839;SDS011;15207;42.182;24.308;2024-02-23T03:22:23;67.30;;;32.10;;
27839;SDS011;15207;42.182;24.308;2024-02-23T03:24:49;89.45;;;41.25;;
27839;SDS011;15207;42.182;24.308;2024-02-23T03:27:14;125.15;;;56.05;;
27839;SDS011;15207;42.182;24.308;2024-02-23T03:32:05;62.65;;;33.35;;
27839;SDS011;15207;42.182;24.308;2024-02-23T03:34:31;50.00;;;29.80;;
27839;SDS011;15207;42.182;24.308;2024-02-23T03:36:56;62.70;;;32.85;;
27839;SDS011;15207;42.182;24.308;2024-02-23T03:39:23;76.40;;;37.90;;
27839;SDS011;15207;42.182;24.308;2024-02-23T03:41:48;74.20;;;39.60;;
27839;SDS011;15207;42.182;24.308;2024-02-23T03:44:14;89.00;;;43.05;;
27839;SDS011;15207;42.182;24.308;2024-02-23T03:46:39;81.30;;;38.40;;
27839;SDS011;15207;42.182;24.308;2024-02-23T03:51:30;67.85;;;34.40;;
27839;SDS011;15207;42.182;24.308;2024-02-23T03:53:57;55.10;;;29.90;;
27839;SDS011;15207;42.182;24.308;2024-02-23T03:58:48;51.50;;;25.65;;
27839;SDS011;15207;42.182;24.308;2024-02-23T04:01:13;48.20;;;27.05;;
27839;SDS011;15207;42.182;24.308;2024-02-23T04:03:39;48.50;;;27.00;;
27839;SDS011;15207;42.182;24.308;2024-02-23T04:06:05;55.80;;;28.40;;
27839;SDS011;15207;42.182;24.308;2024-02-23T04:10:57;55.10;;;28.50;;
27839;SDS011;15207;42.182;24.308;2024-02-23T04:13:22;48.20;;;24.90;;
27839;SDS011;15207;42.182;24.308;2024-02-23T04:15:48;40.40;;;22.10;;
27839;SDS011;15207;42.182;24.308;2024-02-23T04:18:13;37.60;;;21.60;;
27839;SDS011;15207;42.182;24.308;2024-02-23T04:20:39;32.70;;;21.35;;
27839;SDS011;15207;42.182;24.308;2024-02-23T04:23:04;36.70;;;21.70;;
27839;SDS011;15207;42.182;24.308;2024-02-23T04:25:29;40.35;;;21.95;;
27839;SDS011;15207;42.182;24.308;2024-02-23T04:27:55;37.10;;;23.10;;
27839;SDS011;15207;42.182;24.308;2024-02-23T04:30:20;51.20;;;24.20;;
27839;SDS011;15207;42.182;24.308;2024-02-23T04:32:45;60.50;;;28.20;;
27839;SDS011;15207;42.182;24.308;2024-02-23T04:35:11;59.90;;;32.85;;
27839;SDS011;15207;42.182;24.308;2024-02-23T04:37:36;64.20;;;32.30;;
27839;SDS011;15207;42.182;24.308;2024-02-23T04:40:02;60.30;;;33.00;;
27839;SDS011;15207;42.182;24.308;2024-02-23T04:42:29;60.23;;;30.40;;
27839;SDS011;15207;42.182;24.308;2024-02-23T04:49:45;51.60;;;28.40;;
27839;SDS011;15207;42.182;24.308;2024-02-23T04:52:11;51.40;;;27.00;;
27839;SDS011;15207;42.182;24.308;2024-02-23T04:54:36;48.50;;;26.70;;
27839;SDS011;15207;42.182;24.308;2024-02-23T04:57:01;47.00;;;27.30;;
27839;SDS011;15207;42.182;24.308;2024-02-23T04:59:27;44.95;;;25.20;;
27839;SDS011;15207;42.182;24.308;2024-02-23T05:01:53;44.60;;;24.90;;
27839;SDS011;15207;42.182;24.308;2024-02-23T05:04:18;42.80;;;24.40;;
27839;SDS011;15207;42.182;24.308;2024-02-23T05:06:44;47.85;;;26.30;;
27839;SDS011;15207;42.182;24.308;2024-02-23T05:09:09;42.00;;;24.60;;
27839;SDS011;15207;42.182;24.308;2024-02-23T05:11:35;54.95;;;29.85;;
27839;SDS011;15207;42.182;24.308;2024-02-23T05:14:00;272.40;;;132.10;;
27839;SDS011;15207;42.182;24.308;2024-02-23T05:16:26;47.60;;;28.70;;
27839;SDS011;15207;42.182;24.308;2024-02-23T05:18:51;43.00;;;25.10;;
27839;SDS011;15207;42.182;24.308;2024-02-23T05:23:42;46.25;;;26.60;;
27839;SDS011;15207;42.182;24.308;2024-02-23T05:26:08;46.60;;;26.20;;
27839;SDS011;15207;42.182;24.308;2024-02-23T05:28:33;52.60;;;25.70;;
27839;SDS011;15207;42.182;24.308;2024-02-23T05:30:58;48.60;;;25.10;;
27839;SDS011;15207;42.182;24.308;2024-02-23T05:33:24;43.00;;;25.60;;
27839;SDS011;15207;42.182;24.308;2024-02-23T05:35:50;47.67;;;24.80;;
27839;SDS011;15207;42.182;24.308;2024-02-23T05:38:15;41.00;;;24.50;;
27839;SDS011;15207;42.182;24.308;2024-02-23T05:40:41;45.35;;;25.60;;
27839;SDS011;15207;42.182;24.308;2024-02-23T05:43:07;65.70;;;26.70;;
27839;SDS011;15207;42.182;24.308;2024-02-23T05:45:33;57.70;;;30.55;;
27839;SDS011;15207;42.182;24.308;2024-02-23T05:47:58;55.80;;;28.40;;
27839;SDS011;15207;42.182;24.308;2024-02-23T05:50:24;46.25;;;23.05;;
27839;SDS011;15207;42.182;24.308;2024-02-23T05:52:49;39.20;;;22.60;;
27839;SDS011;15207;42.182;24.308;2024-02-23T05:55:15;45.70;;;23.80;;
27839;SDS011;15207;42.182;24.308;2024-02-23T05:57:40;40.53;;;22.80;;
27839;SDS011;15207;42.182;24.308;2024-02-23T06:00:06;43.65;;;22.45;;
27839;SDS011;15207;42.182;24.308;2024-02-23T06:02:34;39.10;;;21.20;;
27839;SDS011;15207;42.182;24.308;2024-02-23T06:05:00;34.90;;;20.85;;
27839;SDS011;15207;42.182;24.308;2024-02-23T06:07:25;36.45;;;21.00;;
27839;SDS011;15207;42.182;24.308;2024-02-23T06:12:20;36.15;;;21.40;;
27839;SDS011;15207;42.182;24.308;2024-02-23T06:14:45;36.50;;;22.90;;
27839;SDS011;15207;42.182;24.308;2024-02-23T06:17:10;38.45;;;23.45;;
27839;SDS011;15207;42.182;24.308;2024-02-23T06:19:36;35.10;;;24.40;;
27839;SDS011;15207;42.182;24.308;2024-02-23T06:22:04;39.90;;;23.40;;
27839;SDS011;15207;42.182;24.308;2024-02-23T06:24:30;34.60;;;21.40;;
27839;SDS011;15207;42.182;24.308;2024-02-23T06:26:55;37.60;;;23.23;;
27839;SDS011;15207;42.182;24.308;2024-02-23T06:29:22;39.70;;;24.10;;
27839;SDS011;15207;42.182;24.308;2024-02-23T06:31:48;75.00;;;47.85;;
27839;SDS011;15207;42.182;24.308;2024-02-23T06:34:14;45.10;;;29.70;;
27839;SDS011;15207;42.182;24.308;2024-02-23T06:36:40;47.30;;;26.10;;
27839;SDS011;15207;42.182;24.308;2024-02-23T06:39:06;49.20;;;29.80;;
27839;SDS011;15207;42.182;24.308;2024-02-23T06:41:32;32.67;;;20.87;;
27839;SDS011;15207;42.182;24.308;2024-02-23T06:43:57;40.90;;;22.70;;
27839;SDS011;15207;42.182;24.308;2024-02-23T06:46:22;39.10;;;23.00;;
27839;SDS011;15207;42.182;24.308;2024-02-23T06:48:48;32.05;;;21.20;;
27839;SDS011;15207;42.182;24.308;2024-02-23T06:51:13;30.70;;;20.00;;
27839;SDS011;15207;42.182;24.308;2024-02-23T06:53:40;35.05;;;20.90;;
27839;SDS011;15207;42.182;24.308;2024-02-23T06:56:06;35.13;;;20.13;;
27839;SDS011;15207;42.182;24.308;2024-02-23T06:58:31;36.55;;;21.35;;
27839;SDS011;15207;42.182;24.308;2024-02-23T07:00:57;27.40;;;19.15;;
27839;SDS011;15207;42.182;24.308;2024-02-23T07:03:22;34.77;;;18.60;;
27839;SDS011;15207;42.182;24.308;2024-02-23T07:05:48;37.85;;;18.80;;
27839;SDS011;15207;42.182;24.308;2024-02-23T07:08:14;31.40;;;19.60;;
27839;SDS011;15207;42.182;24.308;2024-02-23T07:10:40;35.40;;;19.25;;
27839;SDS011;15207;42.182;24.308;2024-02-23T07:13:05;31.30;;;17.90;;
27839;SDS011;15207;42.182;24.308;2024-02-23T07:15:32;41.00;;;17.30;;
27839;SDS011;15207;42.182;24.308;2024-02-23T07:17:58;30.30;;;17.70;;
27839;SDS011;15207;42.182;24.308;2024-02-23T07:20:23;26.80;;;16.70;;
27839;SDS011;15207;42.182;24.308;2024-02-23T07:22:49;27.05;;;15.85;;
27839;SDS011;15207;42.182;24.308;2024-02-23T07:25:18;34.10;;;19.90;;
27839;SDS011;15207;42.182;24.308;2024-02-23T07:27:45;26.50;;;16.80;;
27839;SDS011;15207;42.182;24.308;2024-02-23T07:30:11;39.50;;;18.80;;
27839;SDS011;15207;42.182;24.308;2024-02-23T07:32:37;27.00;;;17.30;;
27839;SDS011;15207;42.182;24.308;2024-02-23T07:35:03;30.25;;;17.10;;
27839;SDS011;15207;42.182;24.308;2024-02-23T07:37:29;30.65;;;16.42;;
27839;SDS011;15207;42.182;24.308;2024-02-23T07:39:55;26.85;;;16.50;;
27839;SDS011;15207;42.182;24.308;2024-02-23T07:42:20;28.10;;;16.50;;
27839;SDS011;15207;42.182;24.308;2024-02-23T07:44:46;32.45;;;18.30;;
27839;SDS011;15207;42.182;24.308;2024-02-23T07:52:02;22.80;;;14.95;;
27839;SDS011;15207;42.182;24.308;2024-02-23T07:54:28;26.75;;;15.40;;
27839;SDS011;15207;42.182;24.308;2024-02-23T07:56:54;22.63;;;15.17;;
27839;SDS011;15207;42.182;24.308;2024-02-23T08:04:10;23.30;;;14.90;;
27839;SDS011;15207;42.182;24.308;2024-02-23T08:06:35;23.00;;;16.40;;
27839;SDS011;15207;42.182;24.308;2024-02-23T08:09:01;24.10;;;15.15;;
27839;SDS011;15207;42.182;24.308;2024-02-23T08:11:27;22.80;;;15.60;;
27839;SDS011;15207;42.182;24.308;2024-02-23T08:13:53;26.60;;;16.20;;
27839;SDS011;15207;42.182;24.308;2024-02-23T08:16:18;24.30;;;16.40;;
27839;SDS011;15207;42.182;24.308;2024-02-23T08:23:35;19.30;;;14.20;;
27839;SDS011;15207;42.182;24.308;2024-02-23T08:26:01;23.60;;;14.50;;
27839;SDS011;15207;42.182;24.308;2024-02-23T08:28:26;20.17;;;13.90;;
27839;SDS011;15207;42.182;24.308;2024-02-23T08:30:52;24.93;;;14.50;;
27839;SDS011;15207;42.182;24.308;2024-02-23T08:33:18;24.20;;;15.50;;
27839;SDS011;15207;42.182;24.308;2024-02-23T08:35:43;20.80;;;14.80;;
27839;SDS011;15207;42.182;24.308;2024-02-23T08:38:09;18.75;;;14.05;;
27839;SDS011;15207;42.182;24.308;2024-02-23T08:40:34;19.50;;;14.35;;
27839;SDS011;15207;42.182;24.308;2024-02-23T08:43:00;21.17;;;14.07;;
27839;SDS011;15207;42.182;24.308;2024-02-23T08:47:51;19.85;;;14.05;;
27839;SDS011;15207;42.182;24.308;2024-02-23T08:50:16;21.00;;;14.80;;
27839;SDS011;15207;42.182;24.308;2024-02-23T08:52:42;26.70;;;14.80;;
27839;SDS011;15207;42.182;24.308;2024-02-23T08:55:07;23.70;;;15.15;;
27839;SDS011;15207;42.182;24.308;2024-02-23T08:57:33;19.90;;;14.10;;
27839;SDS011;15207;42.182;24.308;2024-02-23T08:59:59;20.40;;;14.80;;
27839;SDS011;15207;42.182;24.308;2024-02-23T09:07:15;25.13;;;17.20;;
27839;SDS011;15207;42.182;24.308;2024-02-23T09:09:40;25.00;;;17.30;;
27839;SDS011;15207;42.182;24.308;2024-02-23T09:12:06;24.20;;;16.80;;
27839;SDS011;15207;42.182;24.308;2024-02-23T09:14:35;21.55;;;15.55;;
27839;SDS011;15207;42.182;24.308;2024-02-23T09:17:02;24.50;;;15.60;;
27839;SDS011;15207;42.182;24.308;2024-02-23T09:19:29;24.00;;;15.80;;
27839;SDS011;15207;42.182;24.308;2024-02-23T09:21:54;25.70;;;16.15;;
27839;SDS011;15207;42.182;24.308;2024-02-23T09:24:20;25.35;;;15.70;;
27839;SDS011;15207;42.182;24.308;2024-02-23T09:29:13;27.20;;;17.30;;
27839;SDS011;15207;42.182;24.308;2024-02-23T09:31:39;28.70;;;16.70;;
27839;SDS011;15207;42.182;24.308;2024-02-23T09:34:04;26.20;;;16.80;;
27839;SDS011;15207;42.182;24.308;2024-02-23T09:38:55;26.30;;;16.70;;
27839;SDS011;15207;42.182;24.308;2024-02-23T09:41:21;24.20;;;16.70;;
27839;SDS011;15207;42.182;24.308;2024-02-23T09:43:48;25.80;;;16.70;;
27839;SDS011;15207;42.182;24.308;2024-02-23T09:46:15;28.25;;;17.45;;
27839;SDS011;15207;42.182;24.308;2024-02-23T09:48:44;25.75;;;17.80;;
27839;SDS011;15207;42.182;24.308;2024-02-23T09:51:11;22.30;;;15.90;;
27839;SDS011;15207;42.182;24.308;2024-02-23T09:53:38;25.20;;;17.30;;
27839;SDS011;15207;42.182;24.308;2024-02-23T09:56:04;24.80;;;17.95;;
27839;SDS011;15207;42.182;24.308;2024-02-23T09:58:31;27.37;;;17.00;;
27839;SDS011;15207;42.182;24.308;2024-02-23T10:00:58;24.80;;;17.20;;
27839;SDS011;15207;42.182;24.308;2024-02-23T10:05:53;24.00;;;17.55;;
27839;SDS011;15207;42.182;24.308;2024-02-23T10:10:45;33.20;;;18.15;;
27839;SDS011;15207;42.182;24.308;2024-02-23T10:13:12;23.50;;;17.50;;
27839;SDS011;15207;42.182;24.308;2024-02-23T10:15:37;26.05;;;17.00;;
27839;SDS011;15207;42.182;24.308;2024-02-23T10:18:03;25.70;;;16.90;;
27839;SDS011;15207;42.182;24.308;2024-02-23T10:20:30;22.25;;;16.45;;
27839;SDS011;15207;42.182;24.308;2024-02-23T10:22:56;29.95;;;17.75;;
27839;SDS011;15207;42.182;24.308;2024-02-23T10:30:13;23.05;;;16.70;;
27839;SDS011;15207;42.182;24.308;2024-02-23T10:32:40;23.80;;;15.90;;
27839;SDS011;15207;42.182;24.308;2024-02-23T10:35:09;29.10;;;16.90;;
27839;SDS011;15207;42.182;24.308;2024-02-23T10:37:38;24.25;;;17.05;;
27839;SDS011;15207;42.182;24.308;2024-02-23T10:42:33;26.45;;;17.40;;
27839;SDS011;15207;42.182;24.308;2024-02-23T10:45:00;23.30;;;17.30;;
27839;SDS011;15207;42.182;24.308;2024-02-23T10:47:26;23.10;;;17.30;;
27839;SDS011;15207;42.182;24.308;2024-02-23T10:49:55;25.15;;;16.10;;
27839;SDS011;15207;42.182;24.308;2024-02-23T10:52:23;23.20;;;16.55;;
27839;SDS011;15207;42.182;24.308;2024-02-23T10:54:49;24.30;;;17.70;;
27839;SDS011;15207;42.182;24.308;2024-02-23T10:57:17;21.50;;;16.90;;
27839;SDS011;15207;42.182;24.308;2024-02-23T10:59:46;23.85;;;16.15;;
27839;SDS011;15207;42.182;24.308;2024-02-23T11:02:12;21.85;;;16.60;;
27839;SDS011;15207;42.182;24.308;2024-02-23T11:04:42;23.00;;;16.90;;
27839;SDS011;15207;42.182;24.308;2024-02-23T11:07:15;22.55;;;15.75;;
27839;SDS011;15207;42.182;24.308;2024-02-23T11:09:43;21.50;;;16.05;;
27839;SDS011;15207;42.182;24.308;2024-02-23T11:14:47;24.20;;;16.40;;
27839;SDS011;15207;42.182;24.308;2024-02-23T11:17:19;24.50;;;16.90;;
27839;SDS011;15207;42.182;24.308;2024-02-23T11:19:46;22.30;;;15.90;;
27839;SDS011;15207;42.182;24.308;2024-02-23T11:22:14;33.35;;;15.55;;
27839;SDS011;15207;42.182;24.308;2024-02-23T11:24:43;25.20;;;16.00;;
27839;SDS011;15207;42.182;24.308;2024-02-23T11:27:19;23.40;;;16.70;;
27839;SDS011;15207;42.182;24.308;2024-02-23T11:29:47;20.60;;;15.00;;
27839;SDS011;15207;42.182;24.308;2024-02-23T11:32:23;23.90;;;14.55;;
27839;SDS011;15207;42.182;24.308;2024-02-23T11:35:02;18.10;;;12.35;;
27839;SDS011;15207;42.182;24.308;2024-02-23T11:37:28;21.00;;;13.60;;
27839;SDS011;15207;42.182;24.308;2024-02-23T11:39:54;23.20;;;13.50;;
27839;SDS011;15207;42.182;24.308;2024-02-23T11:42:20;16.30;;;12.70;;
27839;SDS011;15207;42.182;24.308;2024-02-23T11:47:14;23.40;;;14.80;;
27839;SDS011;15207;42.182;24.308;2024-02-23T11:49:41;19.70;;;13.40;;
27839;SDS011;15207;42.182;24.308;2024-02-23T11:54:32;24.30;;;13.70;;
27839;SDS011;15207;42.182;24.308;2024-02-23T11:56:58;22.65;;;14.00;;
27839;SDS011;15207;42.182;24.308;2024-02-23T11:59:24;23.60;;;14.10;;
27839;SDS011;15207;42.182;24.308;2024-02-23T12:04:15;17.70;;;12.20;;
27839;SDS011;15207;42.182;24.308;2024-02-23T12:06:44;26.25;;;13.45;;
27839;SDS011;15207;42.182;24.308;2024-02-23T12:09:10;17.80;;;12.80;;
27839;SDS011;15207;42.182;24.308;2024-02-23T12:11:37;16.20;;;11.50;;
27839;SDS011;15207;42.182;24.308;2024-02-23T12:14:04;21.20;;;10.45;;
27839;SDS011;15207;42.182;24.308;2024-02-23T12:16:34;15.40;;;10.95;;
27839;SDS011;15207;42.182;24.308;2024-02-23T12:21:27;14.00;;;10.60;;
27839;SDS011;15207;42.182;24.308;2024-02-23T12:23:53;19.30;;;11.30;;
27839;SDS011;15207;42.182;24.308;2024-02-23T12:26:18;16.45;;;10.75;;
27839;SDS011;15207;42.182;24.308;2024-02-23T12:28:44;14.60;;;11.30;;
27839;SDS011;15207;42.182;24.308;2024-02-23T12:31:10;15.60;;;12.05;;
27839;SDS011;15207;42.182;24.308;2024-02-23T12:33:40;15.70;;;11.90;;
27839;SDS011;15207;42.182;24.308;2024-02-23T12:36:06;13.60;;;10.80;;
27839;SDS011;15207;42.182;24.308;2024-02-23T12:38:33;13.70;;;10.70;;
27839;SDS011;15207;42.182;24.308;2024-02-23T12:43:24;14.07;;;10.70;;
27839;SDS011;15207;42.182;24.308;2024-02-23T12:45:52;17.50;;;12.13;;
27839;SDS011;15207;42.182;24.308;2024-02-23T12:50:45;15.60;;;11.50;;
27839;SDS011;15207;42.182;24.308;2024-02-23T12:58:29;24.40;;;13.50;;
27839;SDS011;15207;42.182;24.308;2024-02-23T13:00:55;17.00;;;13.20;;
27839;SDS011;15207;42.182;24.308;2024-02-23T13:03:21;21.90;;;13.90;;
27839;SDS011;15207;42.182;24.308;2024-02-23T13:05:46;17.10;;;12.85;;
27839;SDS011;15207;42.182;24.308;2024-02-23T13:08:12;22.05;;;13.40;;
27839;SDS011;15207;42.182;24.308;2024-02-23T13:10:38;19.90;;;12.20;;
27839;SDS011;15207;42.182;24.308;2024-02-23T13:13:03;21.90;;;12.90;;
27839;SDS011;15207;42.182;24.308;2024-02-23T13:15:29;20.58;;;12.73;;
27839;SDS011;15207;42.182;24.308;2024-02-23T13:17:54;21.25;;;12.70;;
27839;SDS011;15207;42.182;24.308;2024-02-23T13:20:22;17.70;;;12.50;;
27839;SDS011;15207;42.182;24.308;2024-02-23T13:22:47;20.80;;;13.20;;
27839;SDS011;15207;42.182;24.308;2024-02-23T13:25:12;23.40;;;12.60;;
27839;SDS011;15207;42.182;24.308;2024-02-23T13:27:38;21.60;;;12.50;;
27839;SDS011;15207;42.182;24.308;2024-02-23T13:30:04;18.50;;;12.30;;
27839;SDS011;15207;42.182;24.308;2024-02-23T13:32:30;15.90;;;11.70;;
27839;SDS011;15207;42.182;24.308;2024-02-23T13:34:55;21.85;;;13.45;;
27839;SDS011;15207;42.182;24.308;2024-02-23T13:37:21;22.60;;;13.00;;
27839;SDS011;15207;42.182;24.308;2024-02-23T13:39:46;19.30;;;11.85;;
27839;SDS011;15207;42.182;24.308;2024-02-23T13:42:11;21.30;;;12.10;;
27839;SDS011;15207;42.182;24.308;2024-02-23T13:44:37;20.90;;;11.65;;
27839;SDS011;15207;42.182;24.308;2024-02-23T13:49:28;18.80;;;12.20;;
27839;SDS011;15207;42.182;24.308;2024-02-23T13:51:53;21.47;;;13.73;;
27839;SDS011;15207;42.182;24.308;2024-02-23T13:56:44;25.80;;;14.30;;
27839;SDS011;15207;42.182;24.308;2024-02-23T13:59:09;19.30;;;14.40;;
27839;SDS011;15207;42.182;24.308;2024-02-23T14:01:35;24.90;;;15.40;;
27839;SDS011;15207;42.182;24.308;2024-02-23T14:04:05;19.40;;;14.05;;
27839;SDS011;15207;42.182;24.308;2024-02-23T14:08:56;26.50;;;15.10;;
27839;SDS011;15207;42.182;24.308;2024-02-23T14:11:22;19.50;;;14.00;;
27839;SDS011;15207;42.182;24.308;2024-02-23T14:13:48;24.30;;;14.45;;
27839;SDS011;15207;42.182;24.308;2024-02-23T14:16:14;20.50;;;14.00;;
27839;SDS011;15207;42.182;24.308;2024-02-23T14:18:39;21.80;;;13.10;;
27839;SDS011;15207;42.182;24.308;2024-02-23T14:21:07;24.30;;;13.90;;
27839;SDS011;15207;42.182;24.308;2024-02-23T14:23:33;26.30;;;15.80;;
27839;SDS011;15207;42.182;24.308;2024-02-23T14:25:58;22.90;;;15.40;;
27839;SDS011;15207;42.182;24.308;2024-02-23T14:28:24;22.20;;;14.55;;
27839;SDS011;15207;42.182;24.308;2024-02-23T14:30:50;19.40;;;13.70;;
27839;SDS011;15207;42.182;24.308;2024-02-23T14:33:15;20.30;;;13.50;;
27839;SDS011;15207;42.182;24.308;2024-02-23T14:35:41;27.35;;;14.90;;
27839;SDS011;15207;42.182;24.308;2024-02-23T14:38:06;22.90;;;14.00;;
27839;SDS011;15207;42.182;24.308;2024-02-23T14:40:32;19.92;;;14.75;;
27839;SDS011;15207;42.182;24.308;2024-02-23T14:45:24;25.80;;;15.25;;
27839;SDS011;15207;42.182;24.308;2024-02-23T14:47:49;24.10;;;14.10;;
27839;SDS011;15207;42.182;24.308;2024-02-23T14:50:15;22.90;;;14.10;;
27839;SDS011;15207;42.182;24.308;2024-02-23T14:52:41;21.30;;;13.30;;
27839;SDS011;15207;42.182;24.308;2024-02-23T14:55:09;27.20;;;14.35;;
27839;SDS011;15207;42.182;24.308;2024-02-23T14:57:36;26.95;;;14.45;;
27839;SDS011;15207;42.182;24.308;2024-02-23T15:00:04;21.40;;;13.70;;
27839;SDS011;15207;42.182;24.308;2024-02-23T15:02:30;19.23;;;13.32;;
27839;SDS011;15207;42.182;24.308;2024-02-23T15:04:55;20.60;;;13.90;;
27839;SDS011;15207;42.182;24.308;2024-02-23T15:07:21;22.70;;;14.25;;
27839;SDS011;15207;42.182;24.308;2024-02-23T15:09:47;23.35;;;14.85;;
27839;SDS011;15207;42.182;24.308;2024-02-23T15:12:13;21.40;;;13.40;;
27839;SDS011;15207;42.182;24.308;2024-02-23T15:14:39;23.80;;;14.40;;
27839;SDS011;15207;42.182;24.308;2024-02-23T15:19:33;23.23;;;14.60;;
27839;SDS011;15207;42.182;24.308;2024-02-23T15:21:58;22.00;;;14.20;;
27839;SDS011;15207;42.182;24.308;2024-02-23T15:24:24;18.50;;;13.50;;
27839;SDS011;15207;42.182;24.308;2024-02-23T15:26:49;32.30;;;16.10;;
27839;SDS011;15207;42.182;24.308;2024-02-23T15:31:41;20.25;;;12.85;;
27839;SDS011;15207;42.182;24.308;2024-02-23T15:34:07;24.60;;;14.20;;
27839;SDS011;15207;42.182;24.308;2024-02-23T15:38:58;23.65;;;14.05;;
27839;SDS011;15207;42.182;24.308;2024-02-23T15:41:27;23.37;;;13.70;;
27839;SDS011;15207;42.182;24.308;2024-02-23T15:43:54;20.60;;;13.50;;
27839;SDS011;15207;42.182;24.308;2024-02-23T15:46:19;41.40;;;16.50;;
27839;SDS011;15207;42.182;24.308;2024-02-23T15:48:45;33.25;;;15.05;;
27839;SDS011;15207;42.182;24.308;2024-02-23T15:51:10;31.00;;;13.80;;
27839;SDS011;15207;42.182;24.308;2024-02-23T15:53:36;27.60;;;13.80;;
27839;SDS011;15207;42.182;24.308;2024-02-23T15:56:04;28.85;;;14.10;;
27839;SDS011;15207;42.182;24.308;2024-02-23T15:58:30;28.15;;;14.60;;
27839;SDS011;15207;42.182;24.308;2024-02-23T16:00:55;46.80;;;17.10;;